Etusivu
METAR-TAF:

METAR-TAF

Lentoasemat :

Gran Canarian lentoasema

Gran Canaria, Espanja

Leveyspiiri: 27-56N, Pituuspiiri: 015-23W, korkeus merenpinnasta: 23 m

Tämänhetkinen sää

Tämä raportti tehtiin 19 minuuttia sitten, kello 06.30 UTC
Tuuli 13 kn pohjoisesta
Lämpötila 17°C
Kosteus 68%
Ilmanpaine 1026 hPa
Näkyvyys 10 km tai enemmän
Muutamia pilviä 2500 ft:n korkeudessa
Hajonneita pilviä 3500 ft:n korkeudessa

METAR: GCLP 200630Z 36013KT 9999 FEW025 BKN035 17/11 Q1026 NOSIG

Aika: 06:49 (06:49 UTC)

Sääennuste

Tämä raportti tehtiin 4 tuntia ja 49 minuuttia sitten, kello 02.00 UTC
Ennuste voimassa 20. päivästä klo 03 UTC - 21. päivään klo 03 UTC
Tuuli 13 kn pohjoisesta
Näkyvyys 10 km tai enemmän
Hajonneita pilviä 3500 ft:n korkeudessa

TAF: GCLP 200200Z 2003/2103 35013KT 9999 BKN035 TX21/2014Z TN15/2006Z

Säähavainnot ja -ennusteet yli 4000 lentoasemalta (METAR- ja TAF-raportit).

Käytössä olevat sääasemat on merkitty karttaan keltaisilla ja punaisilla pisteillä.

Aseta hiiri pisteen päälle nähdäksesi sääaseman nimen.

Klikkaa sitten nähdäksesi säähavainnot ja -ennusteet.

Kartan vaihtaminen: klikkaa mustalla rastilla varustettuja vihreitä pisteitä, niin voit zoomata sisään; viivalla varustettua vihreää pistettä, niin voit zoomata ulos tai vihreitä nuolia, niin pääset viereisille kartoille.


METAR-TAF: